createdAt,value
2019-02-27T00:02:05.768Z,65.65
2019-02-27T00:04:35.752Z,65.94
2019-02-27T00:07:06.120Z,65.86
2019-02-27T00:09:36.372Z,66.03
2019-02-27T00:12:06.335Z,66.12
2019-02-27T00:14:36.334Z,65.83
2019-02-27T00:17:08.187Z,66.10
2019-02-27T00:19:37.933Z,66.00
2019-02-27T00:22:07.919Z,65.77
2019-02-27T00:24:38.786Z,65.63
2019-02-27T00:27:08.985Z,65.53
2019-02-27T00:29:39.342Z,65.67
2019-02-27T00:32:09.052Z,65.79
2019-02-27T00:34:38.988Z,65.80
2019-02-27T00:37:09.191Z,65.76
2019-02-27T00:39:39.285Z,65.21
2019-02-27T00:42:09.316Z,64.88
2019-02-27T00:44:39.296Z,64.99
2019-02-27T00:47:09.201Z,64.89
2019-02-27T00:49:39.393Z,64.88
2019-02-27T00:52:09.425Z,64.67
2019-02-27T00:54:39.654Z,64.62
2019-02-27T00:57:09.716Z,64.51
2019-02-27T00:59:39.689Z,64.54
2019-02-27T01:02:09.780Z,64.60
2019-02-27T01:04:39.794Z,64.74
2019-02-27T01:07:10.063Z,64.71
2019-02-27T01:09:40.098Z,64.67
2019-02-27T01:12:10.675Z,64.35
2019-02-27T01:14:40.858Z,63.80
2019-02-27T01:17:10.800Z,63.83
2019-02-27T01:19:42.751Z,63.61
2019-02-27T01:22:12.495Z,63.46
2019-02-27T01:24:42.765Z,63.60
2019-02-27T01:27:12.787Z,63.57
2019-02-27T01:29:42.971Z,63.40
2019-02-27T01:32:13.006Z,63.44
2019-02-27T01:34:44.433Z,63.57
2019-02-27T01:37:14.982Z,63.55
2019-02-27T01:39:44.959Z,63.69
2019-02-27T01:42:15.049Z,63.75
2019-02-27T01:44:46.557Z,64.16
2019-02-27T01:47:18.909Z,64.23
2019-02-27T01:49:49.734Z,64.17
2019-02-27T01:52:19.747Z,64.03
2019-02-27T01:54:49.913Z,63.80
2019-02-27T01:57:20.014Z,63.76
2019-02-27T01:59:50.426Z,63.90
2019-02-27T02:02:21.232Z,64.14
2019-02-27T02:04:53.792Z,64.27
2019-02-27T02:07:23.010Z,64.24
2019-02-27T02:09:55.106Z,64.19
2019-02-27T02:12:28.036Z,64.18
2019-02-27T02:15:09.438Z,64.24
2019-02-27T02:18:15.849Z,63.96
2019-02-27T02:21:19.565Z,64.19
2019-02-27T02:24:21.624Z,64.02
2019-02-27T02:27:26.284Z,64.35
2019-02-27T02:30:37.917Z,64.07
2019-02-27T02:33:36.017Z,63.67
2019-02-27T02:36:35.292Z,62.93
2019-02-27T02:39:32.569Z,62.93
2019-02-27T02:42:17.483Z,62.57
2019-02-27T02:45:23.044Z,62.46
2019-02-27T02:48:04.023Z,61.98
2019-02-27T02:51:03.073Z,61.17
2019-02-27T02:54:36.312Z,61.65
2019-02-27T02:57:37.160Z,61.53
2019-02-27T03:00:39.227Z,61.27
2019-02-27T03:03:25.411Z,61.31
2019-02-27T03:06:58.190Z,61.34
2019-02-27T03:10:07.363Z,61.13
2019-02-27T03:13:33.207Z,61.52
2019-02-27T03:16:13.696Z,61.32
2019-02-27T03:19:41.259Z,61.47
2019-02-27T03:22:41.637Z,61.79
2019-02-27T03:25:42.148Z,61.73
2019-02-27T03:29:15.784Z,61.77
2019-02-27T03:32:02.035Z,61.51
2019-02-27T03:34:52.022Z,61.70
2019-02-27T03:37:38.159Z,61.66
2019-02-27T03:40:45.106Z,61.53
2019-02-27T03:43:45.671Z,61.69
2019-02-27T03:47:01.808Z,61.73
2019-02-27T03:50:07.207Z,62.26
2019-02-27T03:53:26.845Z,62.24
2019-02-27T03:56:20.162Z,62.52
2019-02-27T03:59:11.476Z,62.62
2019-02-27T04:02:22.335Z,62.91
2019-02-27T04:05:24.166Z,62.33
2019-02-27T04:08:32.779Z,62.94
2019-02-27T04:11:05.845Z,62.81
2019-02-27T04:13:34.988Z,63.02
2019-02-27T04:16:04.949Z,63.08
2019-02-27T04:18:33.739Z,63.33
2019-02-27T04:21:03.736Z,63.37
2019-02-27T04:23:33.670Z,63.34
2019-02-27T04:26:05.829Z,61.65
2019-02-27T04:28:35.236Z,62.26
2019-02-27T04:31:05.707Z,62.32
2019-02-27T04:33:35.741Z,62.16
2019-02-27T04:36:06.378Z,61.70
2019-02-27T04:38:36.651Z,61.58
2019-02-27T04:41:06.676Z,60.97
2019-02-27T04:43:37.036Z,61.12
2019-02-27T04:46:07.155Z,60.91
2019-02-27T04:48:37.277Z,59.98
2019-02-27T04:51:07.417Z,60.52
2019-02-27T04:53:37.564Z,60.29
2019-02-27T04:56:08.454Z,60.28
2019-02-27T04:58:42.751Z,59.85
2019-02-27T05:01:10.345Z,60.64
2019-02-27T05:03:40.318Z,60.74
2019-02-27T05:06:28.961Z,60.57
2019-02-27T05:09:17.776Z,60.43
2019-02-27T05:12:06.541Z,60.46
2019-02-27T05:14:54.957Z,59.84
2019-02-27T05:17:43.424Z,59.82
2019-02-27T05:20:31.958Z,60.09
2019-02-27T05:23:20.562Z,60.25
2019-02-27T05:26:08.964Z,59.86
2019-02-27T05:28:57.842Z,60.21
2019-02-27T05:31:28.761Z,60.05
2019-02-27T05:33:58.841Z,60.12
2019-02-27T05:36:31.451Z,60.13
2019-02-27T05:39:00.778Z,59.31
2019-02-27T05:41:33.074Z,59.43
2019-02-27T05:44:02.747Z,59.29
2019-02-27T05:46:41.911Z,59.26
2019-02-27T05:49:12.291Z,58.63
2019-02-27T05:51:42.490Z,58.37
2019-02-27T05:54:12.842Z,57.78
2019-02-27T05:56:42.734Z,58.36
2019-02-27T05:59:12.834Z,57.70
2019-02-27T06:01:43.287Z,57.76
2019-02-27T06:04:13.569Z,57.71
2019-02-27T06:06:45.675Z,57.51
2019-02-27T06:09:16.325Z,57.53
2019-02-27T06:11:46.569Z,57.32
2019-02-27T06:14:21.199Z,57.22
2019-02-27T06:16:49.306Z,56.93
2019-02-27T06:19:19.532Z,57.49
2019-02-27T06:21:49.738Z,56.99
2019-02-27T06:24:20.075Z,57.09
2019-02-27T06:26:50.305Z,56.63
2019-02-27T06:29:23.161Z,56.67
2019-02-27T06:31:52.390Z,55.96
2019-02-27T06:34:24.852Z,56.41
2019-02-27T06:36:54.925Z,56.22
2019-02-27T06:39:25.034Z,55.94
2019-02-27T06:41:55.446Z,56.31
2019-02-27T06:44:25.467Z,56.31
2019-02-27T06:46:55.596Z,55.81
2019-02-27T06:49:25.859Z,56.06
2019-02-27T06:51:56.387Z,56.05
2019-02-27T06:54:26.676Z,55.93
2019-02-27T06:56:57.014Z,55.95
2019-02-27T06:59:27.258Z,55.76
2019-02-27T07:01:58.374Z,55.69
2019-02-27T07:04:28.935Z,55.57
2019-02-27T07:07:00.573Z,55.72
2019-02-27T07:09:31.046Z,55.66
2019-02-27T07:12:01.465Z,55.57
2019-02-27T07:14:31.899Z,55.67
2019-02-27T07:17:02.246Z,55.44
2019-02-27T07:19:35.101Z,55.30
2019-02-27T07:22:06.241Z,55.32
2019-02-27T07:24:37.695Z,55.05
2019-02-27T07:27:08.371Z,54.93
2019-02-27T07:29:38.383Z,54.82
2019-02-27T07:32:08.755Z,54.81
2019-02-27T07:34:38.967Z,54.72
2019-02-27T07:37:10.425Z,54.57
2019-02-27T07:39:42.188Z,54.42
2019-02-27T07:44:53.259Z,53.93
2019-02-27T07:47:24.702Z,53.82
2019-02-27T07:49:56.236Z,52.98
2019-02-27T07:52:32.226Z,53.15
2019-02-27T07:55:00.572Z,53.34
2019-02-27T07:57:30.799Z,52.88
2019-02-27T08:00:01.534Z,52.11
2019-02-27T08:02:33.733Z,51.98
2019-02-27T08:05:06.477Z,51.88
2019-02-27T08:07:37.780Z,50.88
2019-02-27T08:10:12.293Z,51.25
2019-02-27T08:12:42.818Z,51.50
2019-02-27T08:15:14.700Z,51.67
2019-02-27T08:17:57.331Z,51.83
2019-02-27T08:20:29.462Z,51.91
2019-02-27T08:23:00.159Z,51.02
2019-02-27T08:25:30.754Z,51.56
2019-02-27T08:28:01.016Z,51.50
2019-02-27T08:30:31.515Z,51.19
2019-02-27T08:33:02.172Z,50.56
2019-02-27T08:35:35.435Z,51.63
2019-02-27T08:38:05.878Z,51.68
2019-02-27T08:40:38.778Z,52.42
2019-02-27T08:43:10.256Z,52.75
2019-02-27T08:45:42.274Z,52.52
2019-02-27T08:48:17.100Z,52.40
2019-02-27T08:50:44.775Z,52.17
2019-02-27T08:53:14.650Z,52.17
2019-02-27T08:55:44.981Z,51.87
2019-02-27T08:58:15.227Z,51.88
2019-02-27T09:00:47.476Z,51.55
2019-02-27T09:03:20.562Z,51.86
2019-02-27T09:05:51.090Z,51.51
2019-02-27T09:08:22.300Z,51.17
2019-02-27T09:10:52.336Z,51.64
2019-02-27T09:13:22.415Z,51.53
2019-02-27T09:15:52.650Z,51.63
2019-02-27T09:18:23.058Z,51.41
2019-02-27T09:20:54.148Z,51.27
2019-02-27T09:23:24.629Z,52.06
2019-02-27T09:25:57.260Z,52.29
2019-02-27T09:28:26.315Z,51.89
2019-02-27T09:30:57.121Z,52.02
2019-02-27T09:33:27.204Z,52.05
2019-02-27T09:35:57.534Z,52.47
2019-02-27T09:38:27.507Z,51.95
2019-02-27T09:40:57.589Z,51.65
2019-02-27T09:43:27.953Z,51.53
2019-02-27T09:45:58.136Z,51.52
2019-02-27T09:48:28.276Z,51.06
2019-02-27T09:50:58.700Z,50.65
2019-02-27T09:53:29.069Z,51.20
2019-02-27T09:55:59.154Z,51.55
2019-02-27T09:58:29.366Z,51.34
2019-02-27T10:01:09.873Z,50.93
2019-02-27T10:03:40.344Z,50.55
2019-02-27T10:06:10.757Z,50.65
2019-02-27T10:08:41.110Z,50.14
2019-02-27T10:11:11.096Z,51.13
2019-02-27T10:13:41.429Z,51.37
2019-02-27T10:16:11.699Z,50.91
2019-02-27T10:18:42.014Z,50.72
2019-02-27T10:21:12.732Z,50.46
2019-02-27T10:23:43.229Z,50.42
2019-02-27T10:26:13.275Z,50.59
2019-02-27T10:28:44.105Z,50.69
2019-02-27T10:31:14.602Z,50.55
2019-02-27T10:33:44.711Z,50.79
2019-02-27T10:36:16.260Z,50.71
2019-02-27T10:38:46.743Z,50.87
2019-02-27T10:41:17.202Z,50.90
2019-02-27T10:43:47.085Z,50.67
2019-02-27T10:46:17.112Z,50.48
2019-02-27T10:48:47.663Z,50.76
2019-02-27T10:51:18.757Z,50.43
2019-02-27T10:53:50.350Z,50.16
2019-02-27T10:56:21.591Z,50.04
2019-02-27T10:58:52.542Z,50.09
2019-02-27T11:01:22.658Z,49.79
2019-02-27T11:03:54.601Z,49.48
2019-02-27T11:06:33.473Z,49.29
2019-02-27T11:08:56.338Z,49.26
2019-02-27T11:11:26.622Z,49.38
2019-02-27T11:13:57.285Z,49.00
2019-02-27T11:16:28.029Z,48.79
2019-02-27T11:18:58.926Z,48.71
2019-02-27T11:21:28.899Z,48.78
2019-02-27T11:23:59.422Z,48.75
2019-02-27T11:26:33.949Z,48.22
2019-02-27T11:29:03.351Z,48.33
2019-02-27T11:31:33.321Z,48.74
2019-02-27T11:34:05.066Z,48.88
2019-02-27T11:36:39.066Z,48.76
2019-02-27T11:39:08.037Z,48.50
2019-02-27T11:41:39.031Z,48.35
2019-02-27T11:44:08.989Z,48.45
2019-02-27T11:46:39.077Z,48.27
2019-02-27T11:49:09.697Z,48.34
2019-02-27T11:51:39.738Z,48.82
2019-02-27T11:54:09.785Z,48.46
2019-02-27T11:56:39.999Z,48.80
2019-02-27T11:59:12.947Z,48.41
2019-02-27T12:01:42.320Z,48.40
2019-02-27T12:04:13.401Z,48.57
2019-02-27T12:06:43.700Z,48.82
2019-02-27T12:09:13.981Z,48.98
2019-02-27T12:11:48.382Z,49.09
2019-02-27T12:14:19.920Z,49.12
2019-02-27T12:16:52.507Z,48.98
2019-02-27T12:19:22.754Z,48.86
2019-02-27T12:21:53.057Z,48.54
2019-02-27T12:24:23.587Z,48.08
2019-02-27T12:26:54.099Z,48.28
2019-02-27T12:29:26.520Z,48.63
2019-02-27T12:31:56.184Z,48.71
2019-02-27T12:34:26.359Z,48.92
2019-02-27T12:36:56.534Z,49.48
2019-02-27T12:39:26.446Z,49.49
2019-02-27T12:41:56.413Z,49.44
2019-02-27T12:44:26.883Z,49.23
2019-02-27T12:46:56.951Z,49.12
2019-02-27T12:49:27.234Z,48.90
2019-02-27T12:51:57.447Z,49.25
2019-02-27T12:54:27.807Z,49.28
2019-02-27T12:56:57.797Z,49.54
2019-02-27T12:59:27.914Z,49.64
2019-02-27T13:01:58.490Z,49.55
2019-02-27T13:04:29.617Z,49.42
2019-02-27T13:06:59.705Z,49.55
2019-02-27T13:09:33.531Z,49.64
2019-02-27T13:12:03.691Z,49.50
2019-02-27T13:14:34.642Z,49.44
2019-02-27T13:17:09.224Z,49.57
2019-02-27T13:19:39.567Z,49.60
2019-02-27T13:22:09.617Z,49.83
2019-02-27T13:24:39.609Z,50.05
2019-02-27T13:27:09.925Z,50.24
2019-02-27T13:29:44.539Z,50.22
2019-02-27T13:32:14.848Z,50.40
2019-02-27T13:34:48.228Z,50.70
2019-02-27T13:37:18.738Z,50.94
2019-02-27T13:39:48.673Z,50.99
2019-02-27T13:42:19.237Z,51.01
2019-02-27T13:44:49.436Z,50.89
2019-02-27T13:47:19.339Z,50.94
2019-02-27T13:49:49.341Z,50.88
2019-02-27T13:52:19.563Z,50.86
2019-02-27T13:54:49.915Z,51.07
2019-02-27T13:57:24.968Z,51.04
2019-02-27T13:59:52.612Z,51.17
2019-02-27T14:02:22.890Z,51.29
2019-02-27T14:04:53.722Z,51.50
2019-02-27T14:07:27.191Z,51.64
2019-02-27T14:09:57.370Z,52.00
2019-02-27T14:12:29.985Z,52.26
2019-02-27T14:14:59.684Z,52.34
2019-02-27T14:17:29.654Z,52.53
2019-02-27T14:19:59.806Z,52.84
2019-02-27T14:22:29.953Z,53.07
2019-02-27T14:25:00.300Z,53.22
2019-02-27T14:27:30.875Z,53.14
2019-02-27T14:30:03.482Z,53.30
2019-02-27T14:32:32.674Z,53.38
2019-02-27T14:35:02.836Z,53.58
2019-02-27T14:37:32.994Z,53.60
2019-02-27T14:40:04.502Z,53.88
2019-02-27T14:42:35.314Z,53.82
2019-02-27T14:45:08.814Z,53.93
2019-02-27T14:47:38.935Z,54.12
2019-02-27T14:50:10.630Z,54.39
2019-02-27T14:52:40.914Z,54.39
2019-02-27T14:55:11.772Z,54.46
2019-02-27T14:57:42.125Z,54.49
2019-02-27T15:00:16.086Z,54.58
2019-02-27T15:02:46.400Z,54.58
2019-02-27T15:05:16.831Z,54.74
2019-02-27T15:07:47.336Z,54.83
2019-02-27T15:10:17.631Z,54.99
2019-02-27T15:12:48.037Z,55.29
2019-02-27T15:15:21.000Z,55.30
2019-02-27T15:17:51.864Z,55.80
2019-02-27T15:20:22.998Z,55.76
2019-02-27T15:22:53.791Z,55.75
2019-02-27T15:25:24.196Z,55.85
2019-02-27T15:27:58.361Z,55.72
2019-02-27T15:30:27.547Z,55.66
2019-02-27T15:32:58.031Z,55.67
2019-02-27T15:35:28.453Z,56.06
2019-02-27T15:37:58.537Z,56.00
2019-02-27T15:40:29.991Z,55.83
2019-02-27T15:43:00.563Z,55.81
2019-02-27T15:45:30.617Z,55.77
2019-02-27T15:48:06.478Z,55.88
2019-02-27T15:50:34.303Z,56.01
2019-02-27T15:53:04.987Z,56.30
2019-02-27T15:55:37.803Z,56.43
2019-02-27T15:58:07.802Z,56.36
2019-02-27T16:00:38.146Z,56.47
2019-02-27T16:03:10.678Z,56.52
2019-02-27T16:05:40.249Z,56.64
2019-02-27T16:08:11.178Z,56.77
2019-02-27T16:10:43.725Z,56.69
2019-02-27T16:13:14.053Z,56.69
2019-02-27T16:15:44.720Z,56.69
2019-02-27T16:18:15.122Z,56.78
2019-02-27T16:20:47.097Z,56.93
2019-02-27T16:23:18.636Z,57.05
2019-02-27T16:25:52.829Z,56.99
2019-02-27T16:28:21.291Z,56.97
2019-02-27T16:30:52.021Z,56.99
2019-02-27T16:33:24.059Z,56.91
2019-02-27T16:35:54.764Z,56.86
2019-02-27T16:38:25.415Z,56.90
2019-02-27T16:40:55.827Z,56.78
2019-02-27T16:43:26.509Z,56.63
2019-02-27T16:45:56.715Z,56.58
2019-02-27T16:48:27.126Z,56.52
2019-02-27T16:50:57.426Z,56.50
2019-02-27T16:53:29.685Z,56.70
2019-02-27T16:56:00.117Z,56.76
2019-02-27T16:58:32.967Z,56.67
2019-02-27T17:01:02.714Z,56.84
2019-02-27T17:03:32.932Z,56.87
2019-02-27T17:06:03.138Z,57.12
2019-02-27T17:08:35.678Z,57.31
2019-02-27T17:11:05.538Z,57.57
2019-02-27T17:13:35.679Z,57.55
2019-02-27T17:16:07.132Z,57.39
2019-02-27T17:18:38.287Z,57.55
2019-02-27T17:21:08.731Z,57.57
2019-02-27T17:23:43.793Z,57.65
2019-02-27T17:26:12.606Z,57.69
2019-02-27T17:28:42.845Z,57.72
2019-02-27T17:31:13.121Z,57.66
2019-02-27T17:33:43.613Z,57.79
2019-02-27T17:36:14.012Z,57.78
2019-02-27T17:38:45.261Z,57.61
2019-02-27T17:41:17.008Z,57.70
2019-02-27T17:43:47.720Z,57.68
2019-02-27T17:46:20.499Z,57.61
2019-02-27T17:48:50.176Z,57.50
2019-02-27T17:51:20.362Z,57.39
2019-02-27T17:53:50.762Z,57.38
2019-02-27T17:56:21.390Z,57.54
2019-02-27T17:58:51.961Z,57.51
2019-02-27T18:01:25.014Z,57.61
2019-02-27T18:03:54.372Z,57.62
2019-02-27T18:06:24.996Z,57.76
2019-02-27T18:08:55.822Z,57.76
2019-02-27T18:11:26.437Z,57.72
2019-02-27T18:13:57.135Z,57.86
2019-02-27T18:16:27.986Z,57.91
2019-02-27T18:18:58.815Z,57.93
2019-02-27T18:21:33.251Z,58.01
2019-02-27T18:24:01.367Z,58.15
2019-02-27T18:26:31.652Z,58.29
2019-02-27T18:29:07.739Z,58.51
2019-02-27T18:31:37.274Z,58.62
2019-02-27T18:34:07.726Z,58.54
2019-02-27T18:36:42.876Z,58.48
2019-02-27T18:39:10.153Z,58.50
2019-02-27T18:41:40.306Z,58.56
2019-02-27T18:44:11.355Z,58.51
2019-02-27T18:46:41.463Z,58.42
2019-02-27T18:49:11.660Z,58.39
2019-02-27T18:51:42.273Z,58.25
2019-02-27T18:54:12.473Z,58.33
2019-02-27T18:56:42.897Z,58.29
2019-02-27T18:59:13.439Z,58.16
2019-02-27T19:01:45.204Z,58.15
2019-02-27T19:04:16.029Z,58.42
2019-02-27T19:06:47.016Z,58.34
2019-02-27T19:09:17.158Z,58.17
2019-02-27T19:11:50.901Z,58.33
2019-02-27T19:14:19.733Z,58.53
2019-02-27T19:16:52.165Z,58.61
2019-02-27T19:19:22.832Z,58.63
2019-02-27T19:21:52.868Z,58.80
2019-02-27T19:24:26.665Z,58.71
2019-02-27T19:26:55.367Z,58.60
2019-02-27T19:29:25.572Z,58.61
2019-02-27T19:31:55.920Z,58.61
2019-02-27T19:34:25.987Z,58.61
2019-02-27T19:36:56.261Z,58.56
2019-02-27T19:39:26.732Z,58.59
2019-02-27T19:41:56.964Z,58.63
2019-02-27T19:44:29.200Z,58.69
2019-02-27T19:46:59.579Z,58.83
2019-02-27T19:49:30.018Z,58.80
2019-02-27T19:52:00.187Z,58.93
2019-02-27T19:54:30.257Z,58.97
2019-02-27T19:57:00.827Z,58.79
2019-02-27T19:59:31.574Z,58.63
2019-02-27T20:02:01.731Z,58.45
2019-02-27T20:04:31.954Z,58.52
2019-02-27T20:07:02.539Z,58.49
2019-02-27T20:09:32.841Z,58.62
2019-02-27T20:12:03.287Z,58.80
2019-02-27T20:14:36.669Z,58.33
2019-02-27T20:17:07.146Z,58.35
2019-02-27T20:19:37.599Z,58.16
2019-02-27T20:22:07.810Z,57.99
2019-02-27T20:24:38.276Z,57.99
2019-02-27T20:27:09.204Z,57.98
2019-02-27T20:29:43.313Z,58.09
2019-02-27T20:32:13.751Z,58.09
2019-02-27T20:34:45.899Z,58.04
2019-02-27T20:37:15.782Z,57.78
2019-02-27T20:39:45.776Z,57.68
2019-02-27T20:42:15.906Z,57.58
2019-02-27T20:44:46.817Z,57.65
2019-02-27T20:47:16.902Z,57.50
2019-02-27T20:49:48.043Z,57.47
2019-02-27T20:52:18.205Z,57.41
2019-02-27T20:54:48.394Z,57.44
2019-02-27T20:57:18.927Z,57.59
2019-02-27T20:59:49.028Z,57.49
2019-02-27T21:02:19.696Z,57.41
2019-02-27T21:04:50.497Z,57.42
2019-02-27T21:07:22.411Z,57.28
2019-02-27T21:09:52.452Z,57.25
2019-02-27T21:12:23.120Z,57.13
2019-02-27T21:14:55.163Z,56.93
2019-02-27T21:17:25.150Z,56.97
2019-02-27T21:19:55.258Z,56.95
2019-02-27T21:22:27.760Z,56.96
2019-02-27T21:24:57.367Z,56.98
2019-02-27T21:27:28.481Z,56.90
2019-02-27T21:29:58.925Z,56.37
2019-02-27T21:32:29.063Z,56.45
2019-02-27T21:34:58.938Z,56.61
2019-02-27T21:37:28.873Z,56.60
2019-02-27T21:40:02.116Z,56.65
2019-02-27T21:42:32.717Z,56.62
2019-02-27T21:45:03.605Z,56.63
2019-02-27T21:47:34.686Z,56.62
2019-02-27T21:50:07.146Z,56.50
2019-02-27T21:52:37.443Z,56.52
2019-02-27T21:55:12.549Z,56.47
2019-02-27T21:57:40.255Z,56.51
2019-02-27T22:00:14.000Z,56.52
2019-02-27T22:02:44.978Z,56.54
2019-02-27T22:05:18.518Z,56.56
2019-02-27T22:07:47.828Z,56.64
2019-02-27T22:10:19.451Z,56.67
2019-02-27T22:12:49.639Z,56.72
2019-02-27T22:15:24.966Z,56.92
2019-02-27T22:17:54.998Z,57.13
2019-02-27T22:20:25.802Z,57.18
2019-02-27T22:22:56.794Z,57.21
2019-02-27T22:25:31.031Z,57.21
2019-02-27T22:27:58.841Z,57.09
2019-02-27T22:30:31.679Z,57.08
2019-02-27T22:33:00.352Z,56.97
2019-02-27T22:35:30.586Z,56.90
2019-02-27T22:38:00.558Z,57.05
2019-02-27T22:40:30.670Z,57.24
2019-02-27T22:43:00.630Z,57.61
2019-02-27T22:45:30.451Z,57.93
2019-02-27T22:48:00.329Z,58.32
2019-02-27T22:50:30.817Z,58.64
2019-02-27T22:53:00.973Z,58.94
2019-02-27T22:55:30.921Z,59.25
2019-02-27T22:58:00.823Z,59.53
2019-02-27T23:01:03.915Z,59.81
2019-02-27T23:03:49.669Z,60.19
2019-02-27T23:06:20.135Z,60.64
2019-02-27T23:08:50.322Z,60.87
2019-02-27T23:11:20.157Z,61.04
2019-02-27T23:13:50.192Z,61.24
2019-02-27T23:16:21.290Z,61.52
2019-02-27T23:18:51.093Z,61.57
2019-02-27T23:21:21.074Z,61.48
2019-02-27T23:23:51.039Z,61.34
2019-02-27T23:26:21.122Z,60.93
2019-02-27T23:28:51.089Z,60.66
2019-02-27T23:31:23.387Z,60.36
2019-02-27T23:33:53.419Z,60.22
2019-02-27T23:36:23.754Z,59.98
2019-02-27T23:38:53.966Z,59.88
2019-02-27T23:41:24.001Z,59.67
2019-02-27T23:43:53.988Z,59.61
2019-02-27T23:46:24.132Z,59.57
2019-02-27T23:48:54.395Z,59.60
2019-02-27T23:51:24.846Z,59.62
2019-02-27T23:53:55.087Z,59.71
2019-02-27T23:56:25.021Z,59.75
2019-02-27T23:58:55.068Z,59.75
